createdAt,value
2023-03-15T00:01:21.525Z,99406.81
2023-03-15T00:03:49.162Z,99411.84
2023-03-15T00:06:16.627Z,99416.34
2023-03-15T00:08:47.728Z,99400.63
2023-03-15T00:11:16.793Z,99388.19
2023-03-15T00:13:45.236Z,99357.69
2023-03-15T00:16:17.814Z,99409.00
2023-03-15T00:18:47.774Z,99422.94
2023-03-15T00:21:15.314Z,99416.81
2023-03-15T00:23:42.337Z,99394.00
2023-03-15T00:26:09.367Z,99418.22
2023-03-15T00:28:36.893Z,99412.25
2023-03-15T00:31:12.851Z,99413.22
2023-03-15T00:33:40.059Z,99417.50
2023-03-15T00:36:08.873Z,99405.31
2023-03-15T00:38:37.581Z,99411.38
2023-03-15T00:41:06.842Z,99396.53
2023-03-15T00:43:34.485Z,99398.28
2023-03-15T00:46:01.949Z,99412.22
2023-03-15T00:48:29.557Z,99397.34
2023-03-15T00:51:11.108Z,99404.22
2023-03-15T00:53:40.484Z,99401.78
2023-03-15T00:56:11.288Z,99413.00
2023-03-15T00:58:39.449Z,99402.56
2023-03-15T01:01:15.695Z,99405.81
2023-03-15T01:03:43.576Z,99394.66
2023-03-15T01:06:13.218Z,99386.94
2023-03-15T01:08:41.365Z,99412.31
2023-03-15T01:11:12.306Z,99405.31
2023-03-15T01:13:40.632Z,99400.19
2023-03-15T01:16:09.055Z,99404.69
2023-03-15T01:18:37.983Z,99383.91
2023-03-15T01:21:10.469Z,99394.34
2023-03-15T01:23:38.175Z,99402.75
2023-03-15T01:26:07.740Z,99413.25
2023-03-15T01:28:34.752Z,99394.16
2023-03-15T01:31:03.524Z,99404.44
2023-03-15T01:33:30.923Z,99414.97
2023-03-15T01:36:08.734Z,99402.03
2023-03-15T01:38:36.617Z,99407.25
2023-03-15T01:41:04.380Z,99402.94
2023-03-15T01:43:32.892Z,99400.44
2023-03-15T01:46:06.537Z,99405.78
2023-03-15T01:48:59.889Z,99410.06
2023-03-15T01:51:47.401Z,99420.50
2023-03-15T01:54:24.207Z,99421.16
2023-03-15T01:56:58.024Z,99394.25
2023-03-15T01:59:43.682Z,99416.91
2023-03-15T02:02:14.877Z,99397.69
2023-03-15T02:04:52.504Z,99408.91
2023-03-15T02:07:24.217Z,99385.22
2023-03-15T02:10:05.936Z,99414.28
2023-03-15T02:12:40.817Z,99415.13
2023-03-15T02:15:08.882Z,99385.72
2023-03-15T02:17:48.648Z,99402.91
2023-03-15T02:20:15.656Z,99392.66
2023-03-15T02:23:02.973Z,99421.50
2023-03-15T02:25:59.794Z,99423.78
2023-03-15T02:28:29.495Z,99429.22
2023-03-15T02:30:57.840Z,99418.94
2023-03-15T02:33:30.304Z,99411.84
2023-03-15T02:36:08.513Z,99425.91
2023-03-15T02:38:37.194Z,99425.81
2023-03-15T02:41:05.241Z,99417.00
2023-03-15T02:43:36.637Z,99422.22
2023-03-15T02:46:04.794Z,99431.50
2023-03-15T02:48:33.955Z,99430.59
2023-03-15T02:51:02.289Z,99407.16
2023-03-15T02:53:32.298Z,99420.03
2023-03-15T02:55:59.723Z,99432.06
2023-03-15T02:58:26.866Z,99397.34
2023-03-15T03:00:54.181Z,99424.22
2023-03-15T03:03:21.528Z,99425.19
2023-03-15T03:05:48.743Z,99421.66
2023-03-15T03:08:16.683Z,99427.59
2023-03-15T03:10:44.571Z,99422.41
2023-03-15T03:13:11.591Z,99427.59
2023-03-15T03:15:39.851Z,99413.53
2023-03-15T03:18:06.861Z,99431.00
2023-03-15T03:20:33.872Z,99444.69
2023-03-15T03:23:06.055Z,99440.31
2023-03-15T03:25:33.804Z,99441.13
2023-03-15T03:28:04.096Z,99437.66
2023-03-15T03:30:31.770Z,99444.50
2023-03-15T03:32:58.877Z,99391.81
2023-03-15T03:35:26.065Z,99448.53
2023-03-15T03:37:53.947Z,99443.00
2023-03-15T03:40:29.991Z,99438.88
2023-03-15T03:42:57.028Z,99439.44
2023-03-15T03:45:24.500Z,99438.81
2023-03-15T03:47:55.453Z,99432.91
2023-03-15T03:50:22.874Z,99444.94
2023-03-15T03:52:49.908Z,99444.50
2023-03-15T03:55:25.625Z,99454.97
2023-03-15T03:57:54.071Z,99451.34
2023-03-15T04:00:37.555Z,99461.88
2023-03-15T04:03:05.690Z,99448.81
2023-03-15T04:05:35.964Z,99457.75
2023-03-15T04:08:03.216Z,99462.16
2023-03-15T04:10:35.796Z,99475.06
2023-03-15T04:13:03.473Z,99468.41
2023-03-15T04:15:31.596Z,99464.97
2023-03-15T04:17:59.695Z,99465.94
2023-03-15T04:20:34.741Z,99445.22
2023-03-15T04:23:02.837Z,99461.09
2023-03-15T04:25:58.244Z,99463.69
2023-03-15T04:28:56.031Z,99460.00
2023-03-15T04:31:46.179Z,99468.75
2023-03-15T04:34:39.521Z,99455.97
2023-03-15T04:37:14.084Z,99465.72
2023-03-15T04:40:01.381Z,99457.16
2023-03-15T04:42:31.610Z,99445.75
2023-03-15T04:45:25.181Z,99478.94
2023-03-15T04:47:58.980Z,99474.69
2023-03-15T04:50:34.663Z,99477.38
2023-03-15T04:53:22.006Z,99445.06
2023-03-15T04:55:51.935Z,99496.59
2023-03-15T04:58:48.417Z,99491.34
2023-03-15T05:01:35.720Z,99500.88
2023-03-15T05:04:32.217Z,99499.94
2023-03-15T05:07:36.084Z,99504.06
2023-03-15T05:10:21.711Z,99514.50
2023-03-15T05:13:24.153Z,99486.78
2023-03-15T05:16:12.773Z,99493.00
2023-03-15T05:18:50.761Z,99506.22
2023-03-15T05:21:36.453Z,99474.84
2023-03-15T05:24:15.002Z,99517.34
2023-03-15T05:26:58.234Z,99508.69
2023-03-15T05:29:45.342Z,99531.59
2023-03-15T05:32:12.568Z,99523.06
2023-03-15T05:34:51.117Z,99511.78
2023-03-15T05:37:25.767Z,99537.09
2023-03-15T05:40:10.029Z,99536.41
2023-03-15T05:43:06.447Z,99542.47
2023-03-15T05:46:06.162Z,99542.88
2023-03-15T05:48:54.551Z,99539.66
2023-03-15T05:51:39.078Z,99541.63
2023-03-15T05:54:08.929Z,99561.63
2023-03-15T05:56:52.027Z,99551.31
2023-03-15T05:59:31.156Z,99547.16
2023-03-15T06:02:27.342Z,99560.63
2023-03-15T06:05:14.394Z,99551.44
2023-03-15T06:07:41.582Z,99556.69
2023-03-15T06:10:09.194Z,99538.78
2023-03-15T06:12:36.365Z,99543.59
2023-03-15T06:15:03.521Z,99554.44
2023-03-15T06:17:30.661Z,99533.25
2023-03-15T06:19:58.296Z,99548.78
2023-03-15T06:22:27.371Z,99553.16
2023-03-15T06:24:58.917Z,99540.28
2023-03-15T06:27:25.943Z,99546.44
2023-03-15T06:29:56.245Z,99540.16
2023-03-15T06:32:23.918Z,99555.81
2023-03-15T06:34:51.385Z,99553.38
2023-03-15T06:37:32.889Z,99555.78
2023-03-15T06:40:11.103Z,99566.81
2023-03-15T06:42:39.455Z,99567.38
2023-03-15T06:45:09.940Z,99557.00
2023-03-15T06:47:37.668Z,99559.78
2023-03-15T06:50:06.390Z,99561.19
2023-03-15T06:52:34.159Z,99563.75
2023-03-15T06:55:01.500Z,99560.69
2023-03-15T06:57:30.121Z,99572.44
2023-03-15T06:59:57.239Z,99547.41
2023-03-15T07:02:24.307Z,99519.66
2023-03-15T07:04:51.428Z,99568.34
2023-03-15T07:07:18.429Z,99578.66
2023-03-15T07:09:45.539Z,99575.78
2023-03-15T07:12:12.735Z,99571.72
2023-03-15T07:14:39.744Z,99569.59
2023-03-15T07:17:06.869Z,99557.47
2023-03-15T07:19:35.811Z,99578.84
2023-03-15T07:22:04.527Z,99528.84
2023-03-15T07:24:31.750Z,99563.84
2023-03-15T07:26:58.746Z,99559.38
2023-03-15T07:29:25.782Z,99562.50
2023-03-15T07:31:53.092Z,99569.50
2023-03-15T07:34:20.181Z,99583.69
2023-03-15T07:36:47.329Z,99545.81
2023-03-15T07:39:14.489Z,99589.31
2023-03-15T07:41:41.667Z,99603.50
2023-03-15T07:44:28.722Z,99606.09
2023-03-15T07:46:56.178Z,99604.41
2023-03-15T07:49:23.296Z,99602.25
2023-03-15T07:51:50.304Z,99557.38
2023-03-15T07:54:17.473Z,99600.91
2023-03-15T07:56:44.586Z,99604.81
2023-03-15T07:59:11.627Z,99595.59
2023-03-15T08:01:38.780Z,99586.56
2023-03-15T08:04:05.912Z,99594.97
2023-03-15T08:06:32.997Z,99604.72
2023-03-15T08:09:01.766Z,99608.56
2023-03-15T08:11:28.818Z,99595.78
2023-03-15T08:13:55.848Z,99611.56
2023-03-15T08:16:22.970Z,99611.38
2023-03-15T08:18:50.063Z,99606.56
2023-03-15T08:21:17.195Z,99609.91
2023-03-15T08:23:44.248Z,99607.06
2023-03-15T08:26:11.263Z,99599.88
2023-03-15T08:28:38.291Z,99601.09
2023-03-15T08:31:09.300Z,99602.97
2023-03-15T08:33:36.302Z,99620.28
2023-03-15T08:36:03.438Z,99612.09
2023-03-15T08:38:31.058Z,99595.63
2023-03-15T08:40:58.775Z,99615.00
2023-03-15T08:43:25.956Z,99612.81
2023-03-15T08:46:01.837Z,99617.34
2023-03-15T08:48:29.982Z,99620.94
2023-03-15T08:51:02.630Z,99608.06
2023-03-15T08:53:30.220Z,99636.66
2023-03-15T08:55:58.041Z,99603.09
2023-03-15T08:58:25.270Z,99625.59
2023-03-15T09:00:52.692Z,99615.25
2023-03-15T09:03:20.521Z,99608.97
2023-03-15T09:05:47.551Z,99616.59
2023-03-15T09:08:14.747Z,99608.56
2023-03-15T09:10:41.782Z,99618.53
2023-03-15T09:13:08.773Z,99622.97
2023-03-15T09:15:35.825Z,99613.50
2023-03-15T09:18:03.176Z,99604.88
2023-03-15T09:20:30.457Z,99606.56
2023-03-15T09:22:58.449Z,99609.13
2023-03-15T09:25:27.562Z,99584.69
2023-03-15T09:27:54.778Z,99587.97
2023-03-15T09:30:22.220Z,99608.72
2023-03-15T09:32:49.746Z,99614.53
2023-03-15T09:35:20.125Z,99551.88
2023-03-15T09:37:49.080Z,99603.22
2023-03-15T09:40:23.171Z,99589.28
2023-03-15T09:43:12.052Z,99609.09
2023-03-15T09:45:50.445Z,99609.91
2023-03-15T09:48:39.359Z,99605.53
2023-03-15T09:51:22.961Z,99616.72
2023-03-15T09:54:00.057Z,99616.50
2023-03-15T09:56:33.555Z,99619.88
2023-03-15T09:59:02.362Z,99603.38
2023-03-15T10:01:36.194Z,99617.44
2023-03-15T10:04:11.209Z,99624.53
2023-03-15T10:06:46.246Z,99615.84
2023-03-15T10:09:18.425Z,99601.06
2023-03-15T10:12:03.354Z,99617.56
2023-03-15T10:14:51.527Z,99612.28
2023-03-15T10:17:31.360Z,99600.13
2023-03-15T10:20:04.488Z,99588.13
2023-03-15T10:22:43.505Z,99601.41
2023-03-15T10:25:24.022Z,99585.94
2023-03-15T10:27:53.455Z,99548.56
2023-03-15T10:30:33.549Z,99594.03
2023-03-15T10:33:18.815Z,99580.16
2023-03-15T10:35:45.870Z,99597.59
2023-03-15T10:38:17.213Z,99597.63
2023-03-15T10:40:44.126Z,99603.75
2023-03-15T10:43:22.308Z,99591.53
2023-03-15T10:46:21.412Z,99586.56
2023-03-15T10:49:16.952Z,99621.28
2023-03-15T10:51:46.735Z,99600.13
2023-03-15T10:54:16.098Z,99593.03
2023-03-15T10:56:51.218Z,99593.63
2023-03-15T10:59:27.000Z,99618.81
2023-03-15T11:02:15.109Z,99607.34
2023-03-15T11:04:44.020Z,99601.50
2023-03-15T11:07:13.581Z,99595.38
2023-03-15T11:10:02.545Z,99605.94
2023-03-15T11:12:35.117Z,99600.91
2023-03-15T11:15:07.995Z,99607.06
2023-03-15T11:17:42.042Z,99614.09
2023-03-15T11:20:26.223Z,99618.47
2023-03-15T11:22:54.701Z,99602.91
2023-03-15T11:25:26.394Z,99610.78
2023-03-15T11:27:53.892Z,99600.34
2023-03-15T11:30:34.715Z,99607.34
2023-03-15T11:33:08.198Z,99603.00
2023-03-15T11:35:49.745Z,99609.09
2023-03-15T11:38:35.060Z,99608.28
2023-03-15T11:41:11.312Z,99596.13
2023-03-15T11:44:02.584Z,99603.06
2023-03-15T11:46:40.649Z,99604.84
2023-03-15T11:49:17.473Z,99596.16
2023-03-15T11:51:44.814Z,99596.19
2023-03-15T11:54:15.880Z,99596.13
2023-03-15T11:57:01.741Z,99598.75
2023-03-15T11:59:30.445Z,99600.41
2023-03-15T12:01:57.885Z,99583.75
2023-03-15T12:04:24.902Z,99605.41
2023-03-15T12:06:54.404Z,99601.53
2023-03-15T12:09:33.343Z,99601.53
2023-03-15T12:12:05.871Z,99589.97
2023-03-15T12:14:36.393Z,99607.13
2023-03-15T12:17:24.980Z,99625.97
2023-03-15T12:20:18.283Z,99622.50
2023-03-15T12:23:05.318Z,99612.81
2023-03-15T12:25:48.994Z,99598.81
2023-03-15T12:28:34.526Z,99617.88
2023-03-15T12:31:05.396Z,99623.03
2023-03-15T12:33:44.664Z,99615.97
2023-03-15T12:36:32.261Z,99625.41
2023-03-15T12:39:21.312Z,99631.38
2023-03-15T12:41:50.960Z,99633.09
2023-03-15T12:44:19.326Z,99626.84
2023-03-15T12:46:46.264Z,99624.88
2023-03-15T12:49:13.351Z,99624.78
2023-03-15T12:51:58.125Z,99618.94
2023-03-15T12:54:33.563Z,99601.47
2023-03-15T12:57:03.363Z,99625.09
2023-03-15T12:59:36.782Z,99613.00
2023-03-15T13:02:21.626Z,99609.50
2023-03-15T13:04:50.237Z,99625.88
2023-03-15T13:07:30.531Z,99630.16
2023-03-15T13:10:22.549Z,99626.44
2023-03-15T13:13:14.918Z,99633.22
2023-03-15T13:16:15.689Z,99607.88
2023-03-15T13:19:10.507Z,99625.47
2023-03-15T13:22:14.659Z,99617.47
2023-03-15T13:25:08.486Z,99615.66
2023-03-15T13:27:54.424Z,99612.84
2023-03-15T13:30:55.130Z,99598.94
2023-03-15T13:33:29.183Z,99614.59
2023-03-15T13:36:04.288Z,99605.00
2023-03-15T13:38:35.618Z,99596.94
2023-03-15T13:41:06.699Z,99604.66
2023-03-15T13:43:39.314Z,99595.94
2023-03-15T13:46:06.502Z,99604.50
2023-03-15T13:48:40.105Z,99602.63
2023-03-15T13:51:25.591Z,99587.00
2023-03-15T13:54:02.198Z,99598.22
2023-03-15T13:56:48.859Z,99611.19
2023-03-15T13:59:17.780Z,99597.03
2023-03-15T14:01:45.137Z,99610.06
2023-03-15T14:04:22.832Z,99607.69
2023-03-15T14:06:50.497Z,99615.22
2023-03-15T14:09:28.246Z,99610.06
2023-03-15T14:12:06.845Z,99614.97
2023-03-15T14:14:38.804Z,99613.88
2023-03-15T14:17:27.951Z,99564.19
2023-03-15T14:19:57.236Z,99605.69
2023-03-15T14:22:31.277Z,99610.81
2023-03-15T14:24:58.344Z,99618.56
2023-03-15T14:27:28.826Z,99617.44
2023-03-15T14:30:01.648Z,99622.75
2023-03-15T14:32:34.909Z,99628.53
2023-03-15T14:35:06.524Z,99622.75
2023-03-15T14:37:39.249Z,99588.78
2023-03-15T14:40:29.127Z,99633.00
2023-03-15T14:42:56.407Z,99633.03
2023-03-15T14:45:23.748Z,99638.72
2023-03-15T14:48:05.626Z,99642.19
2023-03-15T14:50:41.169Z,99628.31
2023-03-15T14:53:13.261Z,99630.84
2023-03-15T14:55:40.870Z,99633.97
2023-03-15T14:58:15.404Z,99625.47
2023-03-15T15:00:44.699Z,99642.03
2023-03-15T15:03:19.687Z,99644.72
2023-03-15T15:05:47.157Z,99578.91
2023-03-15T15:08:17.639Z,99636.75
2023-03-15T15:10:47.154Z,99616.88
2023-03-15T15:13:26.138Z,99635.25
2023-03-15T15:15:56.552Z,99621.19
2023-03-15T15:18:35.305Z,99634.25
2023-03-15T15:21:12.692Z,99636.72
2023-03-15T15:23:56.763Z,99633.97
2023-03-15T15:26:28.811Z,99645.13
2023-03-15T15:28:56.778Z,99652.72
2023-03-15T15:31:25.860Z,99631.75
2023-03-15T15:33:54.583Z,99648.09
2023-03-15T15:36:37.398Z,99652.06
2023-03-15T15:39:22.209Z,99661.06
2023-03-15T15:41:50.108Z,99662.66
2023-03-15T15:44:22.550Z,99661.38
2023-03-15T15:46:49.857Z,99649.78
2023-03-15T15:49:17.078Z,99668.78
2023-03-15T15:51:46.347Z,99661.00
2023-03-15T15:54:19.499Z,99665.22
2023-03-15T15:56:55.785Z,99665.00
2023-03-15T15:59:25.813Z,99651.91
2023-03-15T16:02:00.745Z,99663.97
2023-03-15T16:04:29.854Z,99666.50
2023-03-15T16:07:02.897Z,99681.78
2023-03-15T16:09:33.422Z,99661.47
2023-03-15T16:12:00.530Z,99665.34
2023-03-15T16:14:27.655Z,99688.00
2023-03-15T16:16:54.722Z,99679.88
2023-03-15T16:19:21.714Z,99689.72
2023-03-15T16:21:52.154Z,99632.09
2023-03-15T16:24:23.961Z,99697.69
2023-03-15T16:26:53.813Z,99697.47
2023-03-15T16:29:27.472Z,99703.88
2023-03-15T16:31:55.906Z,99690.38
2023-03-15T16:34:26.343Z,99695.94
2023-03-15T16:36:56.140Z,99691.66
2023-03-15T16:39:23.411Z,99705.94
2023-03-15T16:41:52.332Z,99717.22
2023-03-15T16:44:21.383Z,99712.94
2023-03-15T16:46:49.174Z,99654.28
2023-03-15T16:49:16.377Z,99728.59
2023-03-15T16:51:48.294Z,99681.44
2023-03-15T16:57:02.851Z,99715.50
2023-03-15T16:59:29.855Z,99700.47
2023-03-15T17:01:56.964Z,99675.97
2023-03-15T17:04:24.041Z,99710.34
2023-03-15T17:09:24.551Z,99716.47
2023-03-15T17:11:52.664Z,99640.41
2023-03-15T17:14:29.932Z,99706.81
2023-03-15T17:16:57.249Z,99651.69
2023-03-15T17:19:25.052Z,99700.69
2023-03-15T17:21:53.293Z,99704.19
2023-03-15T17:24:20.424Z,99729.81
2023-03-15T17:26:47.567Z,99731.69
2023-03-15T17:29:15.966Z,99718.88
2023-03-15T17:31:44.774Z,99726.00
2023-03-15T17:34:11.968Z,99732.03
2023-03-15T17:36:39.198Z,99728.72
2023-03-15T17:39:07.744Z,99733.13
2023-03-15T17:41:39.588Z,99715.38
2023-03-15T17:44:07.035Z,99637.91
2023-03-15T17:46:34.128Z,99727.13
2023-03-15T17:49:03.085Z,99723.13
2023-03-15T17:51:35.504Z,99721.75
2023-03-15T17:54:11.745Z,99723.44
2023-03-15T17:56:38.802Z,99724.22
2023-03-15T17:59:05.895Z,99724.22
2023-03-15T18:01:35.126Z,99727.88
2023-03-15T18:04:02.221Z,99726.22
2023-03-15T18:06:29.328Z,99708.97
2023-03-15T18:08:56.340Z,99710.88
2023-03-15T18:11:35.985Z,99691.88
2023-03-15T18:14:06.334Z,99698.16
2023-03-15T18:16:33.369Z,99716.50
2023-03-15T18:19:00.592Z,99705.22
2023-03-15T18:21:28.040Z,99721.69
2023-03-15T18:23:55.185Z,99685.50
2023-03-15T18:26:22.978Z,99699.66
2023-03-15T18:28:50.144Z,99712.81
2023-03-15T18:31:20.282Z,99704.09
2023-03-15T18:33:48.033Z,99701.88
2023-03-15T18:36:15.349Z,99721.75
2023-03-15T18:38:43.427Z,99717.41
2023-03-15T18:41:18.182Z,99703.41
2023-03-15T18:43:50.048Z,99706.78
2023-03-15T18:46:22.691Z,99717.41
2023-03-15T18:48:50.167Z,99707.03
2023-03-15T18:51:17.784Z,99714.06
2023-03-15T18:53:45.583Z,99687.97
2023-03-15T18:56:21.531Z,99710.72
2023-03-15T18:58:49.402Z,99710.72
2023-03-15T19:01:18.055Z,99718.66
2023-03-15T19:03:45.251Z,99710.94
2023-03-15T19:06:13.450Z,99695.38
2023-03-15T19:08:40.735Z,99702.38
2023-03-15T19:11:08.711Z,99673.47
2023-03-15T19:13:35.890Z,99696.16
2023-03-15T19:16:03.493Z,99682.97
2023-03-15T19:18:34.993Z,99695.44
2023-03-15T19:21:02.720Z,99671.19
2023-03-15T19:23:29.880Z,99686.72
2023-03-15T19:25:56.935Z,99696.19
2023-03-15T19:28:24.024Z,99703.84
2023-03-15T19:30:51.324Z,99638.41
2023-03-15T19:33:18.498Z,99686.69
2023-03-15T19:35:45.577Z,99694.50
2023-03-15T19:38:12.624Z,99693.47
2023-03-15T19:40:39.760Z,99679.41
2023-03-15T19:43:06.998Z,99694.41
2023-03-15T19:45:34.073Z,99661.06
2023-03-15T19:48:01.113Z,99672.69
2023-03-15T19:50:31.437Z,99690.19
2023-03-15T19:52:58.753Z,99680.28
2023-03-15T19:55:31.586Z,99688.13
2023-03-15T19:57:59.268Z,99679.75
2023-03-15T20:00:26.406Z,99672.56
2023-03-15T20:02:53.636Z,99699.09
2023-03-15T20:05:21.513Z,99695.56
2023-03-15T20:07:51.894Z,99689.38
2023-03-15T20:10:20.810Z,99697.84
2023-03-15T20:12:48.192Z,99696.31
2023-03-15T20:15:18.774Z,99691.16
2023-03-15T20:17:45.860Z,99693.00
2023-03-15T20:20:13.962Z,99697.47
2023-03-15T20:22:43.404Z,99675.06
2023-03-15T20:25:12.968Z,99692.47
2023-03-15T20:27:40.336Z,99695.94
2023-03-15T20:30:08.496Z,99675.16
2023-03-15T20:32:36.167Z,99673.22
2023-03-15T20:35:07.470Z,99683.91
2023-03-15T20:37:35.475Z,99667.84
2023-03-15T20:40:09.104Z,99685.41
2023-03-15T20:42:36.298Z,99671.53
2023-03-15T20:45:04.694Z,99676.97
2023-03-15T20:47:31.787Z,99662.84
2023-03-15T20:50:00.294Z,99681.94
2023-03-15T20:52:28.093Z,99695.44
2023-03-15T20:54:55.118Z,99687.59
2023-03-15T20:57:22.136Z,99703.22
2023-03-15T20:59:49.227Z,99687.56
2023-03-15T21:02:16.261Z,99701.00
2023-03-15T21:04:44.712Z,99695.38
2023-03-15T21:07:12.097Z,99699.06
2023-03-15T21:09:39.721Z,99693.75
2023-03-15T21:12:08.153Z,99676.94
2023-03-15T21:14:35.466Z,99712.56
2023-03-15T21:17:02.605Z,99689.97
2023-03-15T21:19:29.908Z,99700.06
2023-03-15T21:21:59.088Z,99685.84
2023-03-15T21:24:31.216Z,99707.22
2023-03-15T21:26:58.449Z,99681.91
2023-03-15T21:29:25.535Z,99705.72
2023-03-15T21:31:52.734Z,99708.50
2023-03-15T21:34:19.799Z,99709.44
2023-03-15T21:36:46.858Z,99697.03
2023-03-15T21:39:13.861Z,99703.84
2023-03-15T21:41:40.972Z,99709.31
2023-03-15T21:44:07.980Z,99706.28
2023-03-15T21:46:35.386Z,99700.09
2023-03-15T21:49:02.600Z,99689.44
2023-03-15T21:51:30.172Z,99705.53
2023-03-15T21:53:57.286Z,99709.00
2023-03-15T21:56:26.373Z,99641.66
2023-03-15T21:58:54.416Z,99701.97
2023-03-15T22:01:25.399Z,99713.09
2023-03-15T22:03:55.660Z,99708.88
2023-03-15T22:06:22.893Z,99705.59
2023-03-15T22:08:50.374Z,99704.81
2023-03-15T22:11:17.384Z,99645.34
2023-03-15T22:13:44.488Z,99705.09
2023-03-15T22:16:12.487Z,99705.97
2023-03-15T22:18:39.971Z,99687.69
2023-03-15T22:21:07.157Z,99702.59
2023-03-15T22:23:34.182Z,99697.53
2023-03-15T22:26:01.237Z,99706.97
2023-03-15T22:28:28.265Z,99699.13
2023-03-15T22:30:55.353Z,99698.13
2023-03-15T22:33:23.108Z,99654.19
2023-03-15T22:35:57.691Z,99706.84
2023-03-15T22:38:25.966Z,99706.44
2023-03-15T22:41:04.018Z,99701.47
2023-03-15T22:43:31.142Z,99704.13
2023-03-15T22:45:58.480Z,99708.28
2023-03-15T22:48:26.201Z,99704.88
2023-03-15T22:51:01.705Z,99700.69
2023-03-15T22:53:29.854Z,99704.13
2023-03-15T22:55:57.335Z,99683.84
2023-03-15T22:58:24.806Z,99694.13
2023-03-15T23:00:52.115Z,99709.88
2023-03-15T23:03:19.472Z,99699.28
2023-03-15T23:05:46.855Z,99697.66
2023-03-15T23:08:13.847Z,99698.72
2023-03-15T23:10:41.529Z,99691.00
2023-03-15T23:13:08.667Z,99701.78
2023-03-15T23:15:36.194Z,99681.53
2023-03-15T23:18:03.257Z,99700.06
2023-03-15T23:20:30.315Z,99677.91
2023-03-15T23:22:58.076Z,99681.69
2023-03-15T23:25:28.997Z,99685.28
2023-03-15T23:27:56.584Z,99669.75
2023-03-15T23:30:23.803Z,99654.78
2023-03-15T23:32:57.610Z,99664.06
2023-03-15T23:35:24.906Z,99659.75
2023-03-15T23:37:53.201Z,99678.78
2023-03-15T23:40:20.974Z,99675.34
2023-03-15T23:42:48.165Z,99656.94
2023-03-15T23:45:15.602Z,99672.59
2023-03-15T23:47:42.653Z,99679.50
2023-03-15T23:50:12.729Z,99657.94
2023-03-15T23:52:40.260Z,99677.84
2023-03-15T23:55:07.778Z,99636.06
2023-03-15T23:57:35.048Z,99677.03
